createdAt,value
2023-03-15T00:00:27.226Z,12.43
2023-03-15T00:02:31.506Z,8.10
2023-03-15T00:04:34.444Z,14.47
2023-03-15T00:06:37.208Z,17.30
2023-03-15T00:08:40.057Z,6.47
2023-03-15T00:10:43.163Z,7.43
2023-03-15T00:12:47.901Z,18.63
2023-03-15T00:14:51.014Z,7.00
2023-03-15T00:16:54.799Z,21.20
2023-03-15T00:18:58.870Z,8.57
2023-03-15T00:21:01.671Z,5.10
2023-03-15T00:23:04.620Z,11.00
2023-03-15T00:25:08.179Z,5.93
2023-03-15T00:27:11.409Z,9.90
2023-03-15T00:29:14.124Z,9.30
2023-03-15T00:31:19.490Z,7.00
2023-03-15T00:33:22.258Z,10.33
2023-03-15T00:35:26.453Z,12.33
2023-03-15T00:37:29.241Z,9.47
2023-03-15T00:39:32.113Z,9.47
2023-03-15T00:41:34.809Z,8.03
2023-03-15T00:43:37.580Z,6.77
2023-03-15T00:45:40.519Z,16.37
2023-03-15T00:47:43.332Z,8.37
2023-03-15T00:49:46.162Z,10.57
2023-03-15T00:51:50.262Z,12.60
2023-03-15T00:53:54.593Z,8.13
2023-03-15T00:55:57.322Z,12.00
2023-03-15T00:58:00.054Z,4.47
2023-03-15T01:00:08.718Z,7.87
2023-03-15T01:02:12.140Z,11.10
2023-03-15T01:04:15.208Z,8.07
2023-03-15T01:06:20.567Z,7.23
2023-03-15T01:08:25.331Z,8.73
2023-03-15T01:10:28.041Z,11.20
2023-03-15T01:12:33.351Z,11.07
2023-03-15T01:14:37.663Z,8.73
2023-03-15T01:16:40.455Z,10.33
2023-03-15T01:18:43.291Z,11.10
2023-03-15T01:20:46.162Z,7.70
2023-03-15T01:22:48.939Z,5.43
2023-03-15T01:24:52.993Z,9.33
2023-03-15T01:26:55.703Z,6.37
2023-03-15T01:28:58.852Z,11.17
2023-03-15T01:31:01.658Z,12.03
2023-03-15T01:33:04.609Z,6.27
2023-03-15T01:35:08.570Z,9.77
2023-03-15T01:37:14.409Z,9.03
2023-03-15T01:39:17.172Z,12.07
2023-03-15T01:41:24.706Z,13.13
2023-03-15T01:43:28.971Z,8.40
2023-03-15T01:46:14.368Z,13.13
2023-03-15T01:48:17.530Z,14.97
2023-03-15T01:50:25.306Z,12.37
2023-03-15T01:52:34.026Z,10.07
2023-03-15T01:54:42.555Z,9.57
2023-03-15T01:56:50.737Z,9.50
2023-03-15T01:58:54.687Z,9.23
2023-03-15T02:00:57.494Z,10.33
2023-03-15T02:03:05.428Z,9.70
2023-03-15T02:05:12.417Z,11.20
2023-03-15T02:07:19.098Z,9.53
2023-03-15T02:09:22.139Z,9.50
2023-03-15T02:11:27.245Z,13.83
2023-03-15T02:13:32.610Z,12.40
2023-03-15T02:15:35.329Z,11.97
2023-03-15T02:17:40.345Z,11.57
2023-03-15T02:19:50.040Z,17.73
2023-03-15T02:22:02.356Z,6.60
2023-03-15T02:24:14.405Z,10.23
2023-03-15T02:26:25.408Z,10.23
2023-03-15T02:28:30.270Z,12.50
2023-03-15T02:30:33.095Z,9.03
2023-03-15T02:32:35.905Z,9.93
2023-03-15T02:34:38.645Z,7.13
2023-03-15T02:36:41.384Z,8.83
2023-03-15T02:38:44.126Z,7.37
2023-03-15T02:40:47.620Z,11.03
2023-03-15T02:42:58.409Z,13.97
2023-03-15T02:45:02.676Z,8.10
2023-03-15T02:47:08.894Z,10.13
2023-03-15T02:49:13.024Z,12.43
2023-03-15T02:51:21.858Z,7.20
2023-03-15T02:53:24.666Z,6.30
2023-03-15T02:55:27.426Z,8.97
2023-03-15T02:57:31.035Z,8.20
2023-03-15T02:59:33.847Z,10.27
2023-03-15T03:01:38.099Z,11.80
2023-03-15T03:03:41.242Z,13.03
2023-03-15T03:05:43.983Z,11.70
2023-03-15T03:07:46.919Z,12.40
2023-03-15T03:09:49.893Z,10.90
2023-03-15T03:11:52.654Z,12.60
2023-03-15T03:13:55.404Z,8.20
2023-03-15T03:15:59.449Z,11.77
2023-03-15T03:18:03.889Z,6.90
2023-03-15T03:20:09.567Z,8.07
2023-03-15T03:22:13.251Z,8.67
2023-03-15T03:24:16.455Z,12.30
2023-03-15T03:26:20.209Z,7.03
2023-03-15T03:28:24.166Z,11.33
2023-03-15T03:30:26.917Z,7.57
2023-03-15T03:32:29.640Z,10.93
2023-03-15T03:34:33.974Z,8.07
2023-03-15T03:36:36.869Z,7.03
2023-03-15T03:38:40.410Z,8.93
2023-03-15T03:40:43.264Z,7.00
2023-03-15T03:42:46.142Z,14.50
2023-03-15T03:44:50.293Z,7.77
2023-03-15T03:46:53.088Z,7.30
2023-03-15T03:48:56.007Z,11.53
2023-03-15T03:51:00.219Z,13.80
2023-03-15T03:53:02.924Z,10.77
2023-03-15T03:55:06.221Z,12.50
2023-03-15T03:57:09.594Z,8.47
2023-03-15T03:59:12.359Z,11.73
2023-03-15T04:01:15.103Z,7.53
2023-03-15T04:03:17.877Z,9.27
2023-03-15T04:05:21.460Z,10.23
2023-03-15T04:07:25.490Z,12.03
2023-03-15T04:09:28.365Z,10.27
2023-03-15T04:11:31.170Z,7.87
2023-03-15T04:13:34.342Z,6.77
2023-03-15T04:15:37.094Z,9.50
2023-03-15T04:17:40.379Z,9.60
2023-03-15T04:19:46.921Z,6.63
2023-03-15T04:21:49.835Z,8.40
2023-03-15T04:23:53.944Z,7.03
2023-03-15T04:25:57.960Z,6.33
2023-03-15T04:28:02.863Z,7.60
2023-03-15T04:30:06.405Z,5.03
2023-03-15T04:32:09.810Z,7.70
2023-03-15T04:34:13.418Z,8.87
2023-03-15T04:36:18.902Z,9.23
2023-03-15T04:38:26.498Z,8.80
2023-03-15T04:40:30.966Z,12.63
2023-03-15T04:42:34.302Z,7.03
2023-03-15T04:44:37.141Z,5.93
2023-03-15T04:46:40.058Z,11.87
2023-03-15T04:48:42.896Z,8.60
2023-03-15T04:50:45.871Z,10.00
2023-03-15T04:52:48.984Z,7.93
2023-03-15T04:54:51.771Z,11.83
2023-03-15T04:56:55.882Z,10.10
2023-03-15T04:58:58.752Z,9.57
2023-03-15T05:01:01.579Z,7.40
2023-03-15T05:03:04.455Z,11.27
2023-03-15T05:05:07.768Z,9.70
2023-03-15T05:07:10.772Z,6.40
2023-03-15T05:09:19.010Z,13.10
2023-03-15T05:11:22.032Z,7.80
2023-03-15T05:13:26.154Z,9.20
2023-03-15T05:15:29.213Z,8.27
2023-03-15T05:17:33.599Z,10.37
2023-03-15T05:19:36.983Z,11.73
2023-03-15T05:21:39.833Z,9.70
2023-03-15T05:23:42.694Z,12.43
2023-03-15T05:25:50.345Z,11.30
2023-03-15T05:27:53.447Z,11.23
2023-03-15T05:29:57.545Z,12.10
2023-03-15T05:32:00.409Z,10.60
2023-03-15T05:34:04.365Z,7.80
2023-03-15T05:36:07.362Z,8.57
2023-03-15T05:38:14.375Z,7.57
2023-03-15T05:40:17.286Z,7.67
2023-03-15T05:42:26.143Z,8.97
2023-03-15T05:44:29.000Z,13.33
2023-03-15T05:46:33.140Z,8.77
2023-03-15T05:48:35.938Z,8.93
2023-03-15T05:50:38.745Z,8.00
2023-03-15T05:52:41.626Z,12.23
2023-03-15T05:54:44.433Z,12.90
2023-03-15T05:56:47.257Z,8.30
2023-03-15T05:58:50.064Z,10.43
2023-03-15T06:00:52.856Z,9.73
2023-03-15T06:02:57.032Z,6.87
2023-03-15T06:04:59.784Z,9.40
2023-03-15T06:07:02.507Z,6.00
2023-03-15T06:09:05.294Z,14.07
2023-03-15T06:11:08.301Z,6.67
2023-03-15T06:13:11.175Z,8.23
2023-03-15T06:15:14.073Z,10.23
2023-03-15T06:17:16.908Z,10.03
2023-03-15T06:19:21.456Z,11.97
2023-03-15T06:21:24.195Z,15.63
2023-03-15T06:23:26.977Z,12.90
2023-03-15T06:25:30.538Z,8.90
2023-03-15T06:27:33.370Z,13.00
2023-03-15T06:29:36.291Z,10.27
2023-03-15T06:31:39.078Z,14.60
2023-03-15T06:33:42.147Z,9.13
2023-03-15T06:35:47.449Z,10.27
2023-03-15T06:37:50.301Z,8.90
2023-03-15T06:39:54.397Z,10.73
2023-03-15T06:41:58.459Z,7.87
2023-03-15T06:44:01.592Z,13.80
2023-03-15T06:46:04.564Z,13.57
2023-03-15T06:48:07.848Z,10.53
2023-03-15T06:50:12.134Z,7.63
2023-03-15T06:52:16.230Z,7.13
2023-03-15T06:54:19.055Z,10.07
2023-03-15T06:56:21.900Z,9.03
2023-03-15T06:58:24.643Z,6.70
2023-03-15T07:00:27.543Z,10.57
2023-03-15T07:02:37.017Z,6.40
2023-03-15T07:04:40.124Z,9.10
2023-03-15T07:06:42.965Z,9.63
2023-03-15T07:08:47.073Z,6.97
2023-03-15T07:10:50.414Z,10.73
2023-03-15T07:12:53.251Z,6.50
2023-03-15T07:14:56.028Z,7.83
2023-03-15T07:16:58.754Z,8.43
2023-03-15T07:19:02.424Z,7.50
2023-03-15T07:21:07.021Z,8.90
2023-03-15T07:23:09.805Z,8.67
2023-03-15T07:25:13.941Z,8.37
2023-03-15T07:27:19.233Z,8.50
2023-03-15T07:29:22.258Z,5.87
2023-03-15T07:31:25.019Z,6.27
2023-03-15T07:33:29.512Z,9.83
2023-03-15T07:35:32.447Z,8.13
2023-03-15T07:37:35.239Z,10.87
2023-03-15T07:39:37.987Z,6.80
2023-03-15T07:41:42.062Z,9.60
2023-03-15T07:43:44.888Z,9.30
2023-03-15T07:45:47.785Z,5.33
2023-03-15T07:47:50.662Z,8.50
2023-03-15T07:49:53.477Z,11.00
2023-03-15T07:51:56.288Z,9.30
2023-03-15T07:53:59.072Z,11.27
2023-03-15T07:56:01.922Z,9.37
2023-03-15T07:58:06.118Z,12.03
2023-03-15T08:00:12.075Z,8.10
2023-03-15T08:02:15.930Z,7.07
2023-03-15T08:04:18.721Z,10.00
2023-03-15T08:06:21.501Z,8.43
2023-03-15T08:08:24.352Z,6.80
2023-03-15T08:10:27.737Z,8.13
2023-03-15T08:12:31.249Z,9.03
2023-03-15T08:14:35.378Z,11.83
2023-03-15T08:16:38.272Z,7.00
2023-03-15T08:18:41.053Z,17.60
2023-03-15T08:20:43.862Z,11.57
2023-03-15T08:22:47.980Z,7.67
2023-03-15T08:24:53.261Z,7.93
2023-03-15T08:26:56.139Z,6.37
2023-03-15T08:28:58.874Z,10.53
2023-03-15T08:31:06.746Z,11.03
2023-03-15T08:33:09.985Z,7.70
2023-03-15T08:35:15.681Z,8.87
2023-03-15T08:37:18.805Z,7.03
2023-03-15T08:39:23.996Z,12.40
2023-03-15T08:41:26.803Z,8.50
2023-03-15T08:43:29.573Z,8.07
2023-03-15T08:45:37.422Z,6.67
2023-03-15T08:47:47.304Z,7.17
2023-03-15T08:49:50.105Z,8.13
2023-03-15T08:51:52.821Z,6.87
2023-03-15T08:53:55.603Z,5.37
2023-03-15T08:55:58.392Z,5.00
2023-03-15T08:58:03.414Z,5.57
2023-03-15T09:00:09.317Z,5.20
2023-03-15T09:02:12.942Z,4.47
2023-03-15T09:04:17.102Z,6.60
2023-03-15T09:06:19.981Z,6.83
2023-03-15T09:08:25.179Z,5.93
2023-03-15T09:10:27.929Z,6.97
2023-03-15T09:12:30.742Z,8.17
2023-03-15T09:14:33.528Z,5.93
2023-03-15T09:16:36.460Z,7.33
2023-03-15T09:18:40.565Z,5.20
2023-03-15T09:20:44.746Z,4.00
2023-03-15T09:22:52.199Z,4.20
2023-03-15T09:24:55.075Z,3.17
2023-03-15T09:26:57.860Z,2.73
2023-03-15T09:29:00.626Z,3.23
2023-03-15T09:31:07.285Z,3.97
2023-03-15T09:33:14.583Z,4.93
2023-03-15T09:35:19.164Z,3.00
2023-03-15T09:37:23.376Z,2.93
2023-03-15T09:39:26.155Z,7.33
2023-03-15T09:41:43.327Z,2.80
2023-03-15T09:44:05.882Z,4.57
2023-03-15T09:46:24.098Z,3.77
2023-03-15T09:48:33.010Z,4.37
2023-03-15T09:50:42.348Z,6.27
2023-03-15T09:52:49.656Z,3.50
2023-03-15T09:54:57.869Z,2.93
2023-03-15T09:57:03.129Z,4.13
2023-03-15T09:59:07.595Z,2.77
2023-03-15T10:01:14.996Z,4.30
2023-03-15T10:03:22.310Z,4.37
2023-03-15T10:05:40.435Z,2.07
2023-03-15T10:07:43.354Z,8.07
2023-03-15T10:09:47.882Z,4.87
2023-03-15T10:11:59.968Z,5.90
2023-03-15T10:14:19.124Z,4.60
2023-03-15T10:16:32.068Z,3.07
2023-03-15T10:18:52.578Z,2.13
2023-03-15T10:21:02.355Z,3.60
2023-03-15T10:23:11.345Z,5.00
2023-03-15T10:25:18.607Z,5.03
2023-03-15T10:27:23.369Z,1.87
2023-03-15T10:29:28.915Z,3.13
2023-03-15T10:31:44.471Z,3.07
2023-03-15T10:33:49.576Z,1.07
2023-03-15T10:35:56.103Z,3.93
2023-03-15T10:38:02.603Z,2.97
2023-03-15T10:40:07.967Z,1.20
2023-03-15T10:42:27.258Z,4.03
2023-03-15T10:44:30.008Z,2.63
2023-03-15T10:46:32.859Z,5.23
2023-03-15T10:48:36.959Z,1.47
2023-03-15T10:50:40.786Z,2.00
2023-03-15T10:52:46.315Z,2.20
2023-03-15T10:54:52.607Z,2.43
2023-03-15T10:57:02.231Z,1.97
2023-03-15T10:59:17.280Z,2.50
2023-03-15T11:01:25.502Z,2.80
2023-03-15T11:03:28.492Z,2.93
2023-03-15T11:05:42.869Z,3.10
2023-03-15T11:07:55.661Z,2.10
2023-03-15T11:10:01.857Z,7.20
2023-03-15T11:12:06.865Z,3.77
2023-03-15T11:14:13.799Z,2.83
2023-03-15T11:16:23.109Z,1.77
2023-03-15T11:18:30.887Z,3.07
2023-03-15T11:20:37.265Z,2.77
2023-03-15T11:22:40.028Z,2.10
2023-03-15T11:24:42.868Z,6.40
2023-03-15T11:26:51.557Z,2.17
2023-03-15T11:28:59.755Z,2.67
2023-03-15T11:31:06.241Z,2.43
2023-03-15T11:33:09.758Z,2.63
2023-03-15T11:35:16.292Z,2.87
2023-03-15T11:37:23.748Z,2.03
2023-03-15T11:39:35.123Z,4.13
2023-03-15T11:41:42.226Z,1.40
2023-03-15T11:43:53.149Z,3.40
2023-03-15T11:45:59.391Z,5.27
2023-03-15T11:48:12.397Z,3.20
2023-03-15T11:50:16.913Z,6.37
2023-03-15T11:52:23.159Z,2.07
2023-03-15T11:54:29.803Z,6.10
2023-03-15T11:56:51.670Z,2.33
2023-03-15T11:59:11.301Z,4.20
2023-03-15T12:01:26.944Z,2.77
2023-03-15T12:03:42.690Z,3.47
2023-03-15T12:05:50.872Z,7.70
2023-03-15T12:08:01.733Z,2.17
2023-03-15T12:10:32.380Z,4.47
2023-03-15T12:12:47.177Z,3.87
2023-03-15T12:15:01.948Z,4.53
2023-03-15T12:17:40.429Z,3.47
2023-03-15T12:19:45.067Z,5.13
2023-03-15T12:21:50.535Z,2.83
2023-03-15T12:24:03.902Z,5.03
2023-03-15T12:26:10.519Z,2.23
2023-03-15T12:28:22.857Z,5.13
2023-03-15T12:30:32.449Z,2.80
2023-03-15T12:32:46.905Z,6.90
2023-03-15T12:34:52.526Z,5.37
2023-03-15T12:37:01.004Z,2.90
2023-03-15T12:39:22.593Z,5.23
2023-03-15T12:41:38.582Z,2.57
2023-03-15T12:43:43.331Z,3.00
2023-03-15T12:45:47.388Z,3.47
2023-03-15T12:48:22.426Z,4.00
2023-03-15T12:50:38.613Z,3.47
2023-03-15T12:52:43.555Z,4.13
2023-03-15T12:54:51.055Z,5.17
2023-03-15T12:56:57.046Z,6.17
2023-03-15T12:59:04.954Z,3.63
2023-03-15T13:01:16.030Z,6.20
2023-03-15T13:03:23.532Z,6.03
2023-03-15T13:05:31.168Z,5.73
2023-03-15T13:07:51.635Z,4.00
2023-03-15T13:10:13.420Z,3.90
2023-03-15T13:12:22.132Z,3.77
2023-03-15T13:14:45.098Z,4.83
2023-03-15T13:16:55.758Z,5.17
2023-03-15T13:19:07.264Z,7.70
2023-03-15T13:21:17.581Z,3.93
2023-03-15T13:23:23.635Z,3.83
2023-03-15T13:25:34.022Z,5.40
2023-03-15T13:27:48.689Z,4.53
2023-03-15T13:29:51.885Z,6.23
2023-03-15T13:32:02.308Z,4.17
2023-03-15T13:34:13.243Z,4.20
2023-03-15T13:36:18.067Z,6.57
2023-03-15T13:38:32.858Z,4.53
2023-03-15T13:40:35.664Z,3.30
2023-03-15T13:42:40.855Z,3.90
2023-03-15T13:44:43.604Z,5.90
2023-03-15T13:46:48.674Z,9.53
2023-03-15T13:48:52.992Z,6.20
2023-03-15T13:51:04.218Z,2.43
2023-03-15T13:53:07.003Z,5.67
2023-03-15T13:55:13.991Z,5.93
2023-03-15T13:57:19.494Z,2.87
2023-03-15T13:59:23.659Z,2.60
2023-03-15T14:01:27.565Z,4.53
2023-03-15T14:03:30.474Z,4.50
2023-03-15T14:05:36.623Z,4.13
2023-03-15T14:07:44.384Z,5.93
2023-03-15T14:09:47.181Z,3.83
2023-03-15T14:12:02.728Z,6.33
2023-03-15T14:14:24.743Z,5.90
2023-03-15T14:16:57.376Z,11.13
2023-03-15T14:19:17.412Z,5.73
2023-03-15T14:21:33.072Z,5.60
2023-03-15T14:23:42.347Z,3.57
2023-03-15T14:25:51.246Z,2.80
2023-03-15T14:27:54.264Z,5.53
2023-03-15T14:29:59.418Z,2.63
2023-03-15T14:32:05.047Z,5.50
2023-03-15T14:34:16.884Z,1.50
2023-03-15T14:36:24.189Z,4.47
2023-03-15T14:38:32.644Z,4.43
2023-03-15T14:40:39.147Z,2.80
2023-03-15T14:42:41.924Z,4.83
2023-03-15T14:44:44.654Z,4.23
2023-03-15T14:46:47.498Z,3.57
2023-03-15T14:48:51.661Z,3.67
2023-03-15T14:50:55.341Z,12.77
2023-03-15T14:52:59.417Z,2.70
2023-03-15T14:55:02.630Z,1.97
2023-03-15T14:57:06.805Z,1.03
2023-03-15T14:59:13.646Z,2.33
2023-03-15T15:01:20.261Z,3.80
2023-03-15T15:03:31.238Z,3.13
2023-03-15T15:05:36.489Z,1.20
2023-03-15T15:07:39.261Z,1.97
2023-03-15T15:09:47.285Z,3.23
2023-03-15T15:11:51.087Z,4.03
2023-03-15T15:13:56.659Z,2.67
2023-03-15T15:15:59.549Z,4.17
2023-03-15T15:18:02.433Z,9.93
2023-03-15T15:20:07.278Z,5.37
2023-03-15T15:22:11.859Z,6.10
2023-03-15T15:24:17.200Z,4.43
2023-03-15T15:26:22.089Z,7.27
2023-03-15T15:28:34.574Z,4.13
2023-03-15T15:30:40.119Z,3.70
2023-03-15T15:32:45.515Z,6.40
2023-03-15T15:34:48.347Z,6.63
2023-03-15T15:36:51.937Z,9.70
2023-03-15T15:38:55.453Z,8.93
2023-03-15T15:40:58.232Z,7.07
2023-03-15T15:43:03.329Z,4.10
2023-03-15T15:45:12.075Z,4.33
2023-03-15T15:47:16.152Z,5.73
2023-03-15T15:49:19.426Z,5.87
2023-03-15T15:51:27.921Z,11.90
2023-03-15T15:53:33.570Z,8.07
2023-03-15T15:55:39.325Z,7.03
2023-03-15T15:57:43.088Z,4.80
2023-03-15T15:59:45.806Z,7.00
2023-03-15T16:02:00.070Z,5.87
2023-03-15T16:04:05.538Z,6.90
2023-03-15T16:06:14.171Z,10.23
2023-03-15T16:08:22.377Z,3.20
2023-03-15T16:10:30.290Z,4.20
2023-03-15T16:12:33.637Z,8.57
2023-03-15T16:14:36.416Z,9.40
2023-03-15T16:16:39.187Z,8.80
2023-03-15T16:18:42.785Z,6.03
2023-03-15T16:20:46.913Z,3.27
2023-03-15T16:22:53.143Z,2.90
2023-03-15T16:25:01.359Z,4.33
2023-03-15T16:27:06.451Z,3.37
2023-03-15T16:29:17.813Z,4.93
2023-03-15T16:31:21.890Z,4.70
2023-03-15T16:33:24.828Z,3.30
2023-03-15T16:35:31.989Z,4.07
2023-03-15T16:37:36.290Z,4.07
2023-03-15T16:39:39.183Z,3.60
2023-03-15T16:41:42.360Z,3.53
2023-03-15T16:43:48.598Z,3.50
2023-03-15T16:45:51.963Z,5.53
2023-03-15T16:47:56.345Z,9.07
2023-03-15T16:49:59.097Z,6.20
2023-03-15T16:52:03.404Z,5.27
2023-03-15T16:54:19.561Z,4.70
2023-03-15T16:56:27.416Z,3.77
2023-03-15T16:58:30.230Z,6.60
2023-03-15T17:00:32.967Z,8.90
2023-03-15T17:02:35.721Z,5.97
2023-03-15T17:04:38.504Z,8.27
2023-03-15T17:06:41.790Z,7.73
2023-03-15T17:08:44.614Z,3.53
2023-03-15T17:10:49.333Z,6.30
2023-03-15T17:12:53.210Z,4.87
2023-03-15T17:14:58.826Z,4.47
2023-03-15T17:17:01.634Z,3.93
2023-03-15T17:19:04.511Z,3.97
2023-03-15T17:21:07.502Z,5.13
2023-03-15T17:23:10.790Z,4.73
2023-03-15T17:25:13.560Z,4.17
2023-03-15T17:27:23.302Z,6.23
2023-03-15T17:29:26.089Z,2.73
2023-03-15T17:31:33.320Z,3.23
2023-03-15T17:33:36.121Z,4.73
2023-03-15T17:35:42.555Z,8.57
2023-03-15T17:37:45.762Z,3.67
2023-03-15T17:39:48.681Z,6.17
2023-03-15T17:41:51.492Z,7.97
2023-03-15T17:43:56.008Z,4.40
2023-03-15T17:45:58.893Z,4.83
2023-03-15T17:48:02.446Z,3.43
2023-03-15T17:50:05.724Z,5.13
2023-03-15T17:52:15.208Z,5.13
2023-03-15T17:54:19.155Z,4.43
2023-03-15T17:56:22.756Z,4.17
2023-03-15T17:58:27.293Z,6.57
2023-03-15T18:00:32.758Z,4.17
2023-03-15T18:02:36.954Z,5.10
2023-03-15T18:04:39.769Z,4.60
2023-03-15T18:06:42.909Z,4.90
2023-03-15T18:08:46.076Z,7.33
2023-03-15T18:10:50.634Z,4.23
2023-03-15T18:12:53.765Z,5.33
2023-03-15T18:14:56.492Z,6.00
2023-03-15T18:17:00.596Z,6.17
2023-03-15T18:19:03.391Z,8.73
2023-03-15T18:21:06.445Z,6.70
2023-03-15T18:23:12.663Z,10.87
2023-03-15T18:25:19.962Z,11.63
2023-03-15T18:27:22.816Z,13.20
2023-03-15T18:29:25.554Z,15.17
2023-03-15T18:31:28.801Z,15.73
2023-03-15T18:33:32.950Z,13.80
2023-03-15T18:35:37.075Z,20.20
2023-03-15T18:37:40.020Z,19.27
2023-03-15T18:39:43.059Z,20.10
2023-03-15T18:41:45.863Z,19.50
2023-03-15T18:43:49.889Z,16.87
2023-03-15T18:45:52.848Z,13.97
2023-03-15T18:47:55.694Z,11.23
2023-03-15T18:50:09.646Z,28.30
2023-03-15T18:52:15.795Z,13.53
2023-03-15T18:54:18.554Z,13.20
2023-03-15T18:56:24.059Z,27.20
2023-03-15T18:58:27.712Z,46.47
2023-03-15T19:00:35.998Z,52.37
2023-03-15T19:02:38.861Z,48.20
2023-03-15T19:04:41.685Z,48.40
2023-03-15T19:06:45.721Z,63.27
2023-03-15T19:08:53.210Z,57.30
2023-03-15T19:10:59.696Z,51.23
2023-03-15T19:13:04.450Z,48.67
2023-03-15T19:15:10.582Z,42.23
2023-03-15T19:17:13.443Z,42.67
2023-03-15T19:19:16.602Z,35.93
2023-03-15T19:21:20.152Z,29.13
2023-03-15T19:23:24.323Z,57.90
2023-03-15T19:25:27.066Z,45.40
2023-03-15T19:27:29.853Z,80.97
2023-03-15T19:29:32.617Z,77.77
2023-03-15T19:31:35.351Z,57.37
2023-03-15T19:33:38.318Z,60.53
2023-03-15T19:35:41.082Z,67.63
2023-03-15T19:37:44.475Z,69.80
2023-03-15T19:39:49.269Z,64.77
2023-03-15T19:41:52.026Z,115.30
2023-03-15T19:43:54.765Z,86.90
2023-03-15T19:45:57.529Z,53.60
2023-03-15T19:48:00.300Z,43.20
2023-03-15T19:50:03.187Z,34.23
2023-03-15T19:52:06.175Z,17.03
2023-03-15T19:54:09.064Z,19.97
2023-03-15T19:56:13.244Z,16.00
2023-03-15T19:58:16.071Z,9.13
2023-03-15T20:00:20.329Z,13.33
2023-03-15T20:02:23.483Z,26.23
2023-03-15T20:04:27.383Z,16.27
2023-03-15T20:06:30.219Z,25.47
2023-03-15T20:08:34.174Z,19.20
2023-03-15T20:10:36.946Z,28.13
2023-03-15T20:12:42.360Z,75.63
2023-03-15T20:14:45.408Z,79.27
2023-03-15T20:16:48.279Z,93.47
2023-03-15T20:18:51.911Z,74.30
2023-03-15T20:20:55.199Z,59.23
2023-03-15T20:22:58.006Z,36.67
2023-03-15T20:25:01.452Z,24.40
2023-03-15T20:27:04.311Z,30.53
2023-03-15T20:29:09.707Z,25.77
2023-03-15T20:31:15.526Z,26.63
2023-03-15T20:33:18.385Z,23.57
2023-03-15T20:35:21.460Z,25.47
2023-03-15T20:37:24.569Z,21.03
2023-03-15T20:39:27.522Z,19.30
2023-03-15T20:41:30.281Z,16.47
2023-03-15T20:43:33.561Z,11.70
2023-03-15T20:45:37.701Z,12.30
2023-03-15T20:47:41.166Z,11.77
2023-03-15T20:49:44.053Z,15.47
2023-03-15T20:51:46.841Z,9.57
2023-03-15T20:53:49.635Z,9.23
2023-03-15T20:55:52.742Z,9.57
2023-03-15T20:57:55.576Z,8.80
2023-03-15T20:59:58.708Z,6.00
2023-03-15T21:02:04.116Z,5.57
2023-03-15T21:04:06.886Z,6.63
2023-03-15T21:06:10.653Z,8.07
2023-03-15T21:08:14.325Z,8.30
2023-03-15T21:10:17.454Z,8.80
2023-03-15T21:12:20.708Z,5.07
2023-03-15T21:14:23.547Z,8.17
2023-03-15T21:16:26.657Z,3.63
2023-03-15T21:18:31.811Z,5.67
2023-03-15T21:20:34.601Z,8.90
2023-03-15T21:22:37.396Z,6.20
2023-03-15T21:24:54.512Z,6.13
2023-03-15T21:26:58.268Z,6.27
2023-03-15T21:29:01.093Z,7.67
2023-03-15T21:31:05.526Z,9.33
2023-03-15T21:33:08.360Z,9.07
2023-03-15T21:35:12.751Z,5.87
2023-03-15T21:37:15.527Z,7.53
2023-03-15T21:39:18.755Z,6.90
2023-03-15T21:41:21.524Z,8.67
2023-03-15T21:43:24.451Z,5.40
2023-03-15T21:45:27.328Z,12.77
2023-03-15T21:47:30.115Z,14.17
2023-03-15T21:49:33.569Z,10.33
2023-03-15T21:51:38.522Z,11.27
2023-03-15T21:53:41.412Z,12.20
2023-03-15T21:55:46.292Z,9.73
2023-03-15T21:57:49.109Z,10.20
2023-03-15T21:59:52.056Z,7.70
2023-03-15T22:01:55.655Z,11.20
2023-03-15T22:03:58.456Z,12.20
2023-03-15T22:06:01.514Z,7.67
2023-03-15T22:08:05.728Z,6.50
2023-03-15T22:10:10.701Z,9.83
2023-03-15T22:12:15.438Z,11.30
2023-03-15T22:14:18.678Z,13.30
2023-03-15T22:16:21.523Z,9.33
2023-03-15T22:18:28.394Z,10.97
2023-03-15T22:20:31.279Z,6.37
2023-03-15T22:22:34.075Z,7.83
2023-03-15T22:24:38.284Z,8.37
2023-03-15T22:26:42.894Z,12.00
2023-03-15T22:28:45.650Z,8.83
2023-03-15T22:30:49.475Z,9.27
2023-03-15T22:32:52.331Z,7.97
2023-03-15T22:34:55.120Z,10.43
2023-03-15T22:36:57.860Z,11.27
2023-03-15T22:39:00.673Z,11.53
2023-03-15T22:41:09.624Z,11.90
2023-03-15T22:43:12.461Z,10.77
2023-03-15T22:45:15.264Z,10.83
2023-03-15T22:47:18.068Z,9.37
2023-03-15T22:49:20.765Z,12.37
2023-03-15T22:51:23.493Z,9.30
2023-03-15T22:53:26.221Z,9.70
2023-03-15T22:55:28.946Z,10.40
2023-03-15T22:57:33.735Z,16.53
2023-03-15T22:59:36.482Z,10.70
2023-03-15T23:01:39.824Z,12.17
2023-03-15T23:03:42.589Z,13.70
2023-03-15T23:05:46.035Z,13.47
2023-03-15T23:07:48.832Z,14.37
2023-03-15T23:09:51.665Z,11.57
2023-03-15T23:11:54.440Z,16.33
2023-03-15T23:13:58.554Z,10.40
2023-03-15T23:16:03.950Z,13.77
2023-03-15T23:18:07.270Z,12.13
2023-03-15T23:20:12.727Z,10.87
2023-03-15T23:22:15.581Z,17.50
2023-03-15T23:24:19.735Z,12.67
2023-03-15T23:26:25.476Z,12.40
2023-03-15T23:28:28.224Z,15.37
2023-03-15T23:30:35.125Z,14.83
2023-03-15T23:32:38.592Z,15.37
2023-03-15T23:34:42.959Z,10.07
2023-03-15T23:36:45.715Z,10.73
2023-03-15T23:38:48.501Z,8.27
2023-03-15T23:40:55.206Z,10.87
2023-03-15T23:42:59.844Z,10.83
2023-03-15T23:45:02.644Z,12.17
2023-03-15T23:47:07.389Z,8.17
2023-03-15T23:49:10.434Z,7.67
2023-03-15T23:51:13.638Z,7.80
2023-03-15T23:53:16.364Z,9.87
2023-03-15T23:55:19.338Z,10.67
2023-03-15T23:57:22.251Z,6.10
2023-03-15T23:59:25.110Z,6.10
